sensor_id;sensor_type;location;lat;lon;timestamp;P1;durP1;ratioP1;P2;durP2;ratioP2
68523;SDS011;55524;51.380;13.372;2023-02-15T00:01:27;37.90;;;15.75;;
68523;SDS011;55524;51.380;13.372;2023-02-15T00:03:54;36.85;;;16.40;;
68523;SDS011;55524;51.380;13.372;2023-02-15T00:06:20;38.72;;;16.58;;
68523;SDS011;55524;51.380;13.372;2023-02-15T00:08:47;35.03;;;14.63;;
68523;SDS011;55524;51.380;13.372;2023-02-15T00:11:15;33.03;;;14.27;;
68523;SDS011;55524;51.380;13.372;2023-02-15T00:14:03;34.35;;;15.10;;
68523;SDS011;55524;51.380;13.372;2023-02-15T00:16:42;34.30;;;14.90;;
68523;SDS011;55524;51.380;13.372;2023-02-15T00:19:09;28.80;;;13.70;;
68523;SDS011;55524;51.380;13.372;2023-02-15T00:21:37;35.40;;;15.57;;
68523;SDS011;55524;51.380;13.372;2023-02-15T00:24:05;34.40;;;15.32;;
68523;SDS011;55524;51.380;13.372;2023-02-15T00:26:33;30.65;;;13.38;;
68523;SDS011;55524;51.380;13.372;2023-02-15T00:29:00;40.75;;;13.73;;
68523;SDS011;55524;51.380;13.372;2023-02-15T00:31:27;29.75;;;13.88;;
68523;SDS011;55524;51.380;13.372;2023-02-15T00:33:55;34.00;;;14.88;;
68523;SDS011;55524;51.380;13.372;2023-02-15T00:36:32;32.22;;;15.55;;
68523;SDS011;55524;51.380;13.372;2023-02-15T00:38:58;33.17;;;15.55;;
68523;SDS011;55524;51.380;13.372;2023-02-15T00:41:25;35.83;;;15.38;;
68523;SDS011;55524;51.380;13.372;2023-02-15T00:43:51;37.65;;;15.95;;
68523;SDS011;55524;51.380;13.372;2023-02-15T00:46:17;35.67;;;15.82;;
68523;SDS011;55524;51.380;13.372;2023-02-15T00:48:43;45.92;;;16.98;;
68523;SDS011;55524;51.380;13.372;2023-02-15T00:51:10;42.20;;;17.48;;
68523;SDS011;55524;51.380;13.372;2023-02-15T00:53:36;50.05;;;18.00;;
68523;SDS011;55524;51.380;13.372;2023-02-15T00:56:02;42.80;;;17.77;;
68523;SDS011;55524;51.380;13.372;2023-02-15T00:58:28;48.33;;;17.25;;
68523;SDS011;55524;51.380;13.372;2023-02-15T01:00:55;44.30;;;17.55;;
68523;SDS011;55524;51.380;13.372;2023-02-15T01:03:32;45.50;;;18.13;;
68523;SDS011;55524;51.380;13.372;2023-02-15T01:05:59;43.28;;;17.35;;
68523;SDS011;55524;51.380;13.372;2023-02-15T01:08:25;48.45;;;17.83;;
68523;SDS011;55524;51.380;13.372;2023-02-15T01:10:52;50.85;;;18.55;;
68523;SDS011;55524;51.380;13.372;2023-02-15T01:13:19;43.00;;;16.55;;
68523;SDS011;55524;51.380;13.372;2023-02-15T01:15:45;43.88;;;16.95;;
68523;SDS011;55524;51.380;13.372;2023-02-15T01:18:18;51.08;;;17.45;;
68523;SDS011;55524;51.380;13.372;2023-02-15T01:20:44;50.70;;;19.02;;
68523;SDS011;55524;51.380;13.372;2023-02-15T01:23:12;50.88;;;18.05;;
68523;SDS011;55524;51.380;13.372;2023-02-15T01:25:39;44.00;;;17.65;;
68523;SDS011;55524;51.380;13.372;2023-02-15T01:28:05;45.40;;;16.58;;
68523;SDS011;55524;51.380;13.372;2023-02-15T01:30:31;46.78;;;18.13;;
68523;SDS011;55524;51.380;13.372;2023-02-15T01:32:58;55.00;;;18.75;;
68523;SDS011;55524;51.380;13.372;2023-02-15T01:35:28;52.70;;;18.83;;
68523;SDS011;55524;51.380;13.372;2023-02-15T01:37:55;53.97;;;18.40;;
68523;SDS011;55524;51.380;13.372;2023-02-15T01:40:21;48.35;;;18.70;;
68523;SDS011;55524;51.380;13.372;2023-02-15T01:42:52;48.15;;;18.08;;
68523;SDS011;55524;51.380;13.372;2023-02-15T01:45:21;61.70;;;18.80;;
68523;SDS011;55524;51.380;13.372;2023-02-15T01:47:52;52.65;;;18.85;;
68523;SDS011;55524;51.380;13.372;2023-02-15T01:50:28;51.55;;;18.05;;
68523;SDS011;55524;51.380;13.372;2023-02-15T01:55:47;46.50;;;16.95;;
68523;SDS011;55524;51.380;13.372;2023-02-15T01:58:17;49.70;;;17.58;;
68523;SDS011;55524;51.380;13.372;2023-02-15T02:00:45;48.17;;;17.63;;
68523;SDS011;55524;51.380;13.372;2023-02-15T02:03:11;51.30;;;17.58;;
68523;SDS011;55524;51.380;13.372;2023-02-15T02:05:38;51.28;;;18.73;;
68523;SDS011;55524;51.380;13.372;2023-02-15T02:08:05;50.95;;;17.63;;
68523;SDS011;55524;51.380;13.372;2023-02-15T02:10:35;49.55;;;17.90;;
68523;SDS011;55524;51.380;13.372;2023-02-15T02:13:03;57.95;;;18.48;;
68523;SDS011;55524;51.380;13.372;2023-02-15T02:15:45;51.35;;;17.63;;
68523;SDS011;55524;51.380;13.372;2023-02-15T02:27:27;60.03;;;19.70;;
68523;SDS011;55524;51.380;13.372;2023-02-15T02:50:03;49.42;;;18.23;;
68523;SDS011;55524;51.380;13.372;2023-02-15T02:55:03;50.45;;;17.95;;
68523;SDS011;55524;51.380;13.372;2023-02-15T02:57:56;48.30;;;17.75;;
68523;SDS011;55524;51.380;13.372;2023-02-15T03:00:36;48.72;;;17.88;;
68523;SDS011;55524;51.380;13.372;2023-02-15T03:03:14;49.70;;;17.45;;
68523;SDS011;55524;51.380;13.372;2023-02-15T03:05:50;50.30;;;17.63;;
68523;SDS011;55524;51.380;13.372;2023-02-15T03:08:19;45.95;;;17.08;;
68523;SDS011;55524;51.380;13.372;2023-02-15T03:10:49;53.75;;;19.67;;
68523;SDS011;55524;51.380;13.372;2023-02-15T03:13:19;49.97;;;18.88;;
68523;SDS011;55524;51.380;13.372;2023-02-15T03:15:47;48.33;;;17.88;;
68523;SDS011;55524;51.380;13.372;2023-02-15T03:18:41;53.92;;;19.67;;
68523;SDS011;55524;51.380;13.372;2023-02-15T03:21:19;54.47;;;18.75;;
68523;SDS011;55524;51.380;13.372;2023-02-15T03:23:52;51.13;;;17.83;;
68523;SDS011;55524;51.380;13.372;2023-02-15T03:26:24;53.47;;;18.27;;
68523;SDS011;55524;51.380;13.372;2023-02-15T03:28:53;57.38;;;18.70;;
68523;SDS011;55524;51.380;13.372;2023-02-15T03:31:24;47.80;;;17.98;;
68523;SDS011;55524;51.380;13.372;2023-02-15T03:33:58;51.70;;;16.10;;
68523;SDS011;55524;51.380;13.372;2023-02-15T03:39:10;55.70;;;18.15;;
68523;SDS011;55524;51.380;13.372;2023-02-15T03:41:58;55.33;;;18.92;;
68523;SDS011;55524;51.380;13.372;2023-02-15T03:44:28;60.28;;;19.27;;
68523;SDS011;55524;51.380;13.372;2023-02-15T03:47:30;59.53;;;18.65;;
68523;SDS011;55524;51.380;13.372;2023-02-15T03:50:00;52.63;;;18.30;;
68523;SDS011;55524;51.380;13.372;2023-02-15T03:52:50;51.05;;;17.38;;
68523;SDS011;55524;51.380;13.372;2023-02-15T03:55:17;55.75;;;18.15;;
68523;SDS011;55524;51.380;13.372;2023-02-15T03:57:44;53.55;;;17.25;;
68523;SDS011;55524;51.380;13.372;2023-02-15T04:00:29;58.03;;;19.08;;
68523;SDS011;55524;51.380;13.372;2023-02-15T04:05:49;49.60;;;16.83;;
68523;SDS011;55524;51.380;13.372;2023-02-15T04:08:16;49.35;;;16.95;;
68523;SDS011;55524;51.380;13.372;2023-02-15T04:10:42;44.65;;;14.82;;
68523;SDS011;55524;51.380;13.372;2023-02-15T04:13:21;47.08;;;15.70;;
68523;SDS011;55524;51.380;13.372;2023-02-15T04:15:48;52.35;;;16.40;;
68523;SDS011;55524;51.380;13.372;2023-02-15T04:18:28;51.47;;;15.80;;
68523;SDS011;55524;51.380;13.372;2023-02-15T04:21:16;55.15;;;15.75;;
68523;SDS011;55524;51.380;13.372;2023-02-15T04:24:02;47.38;;;15.40;;
68523;SDS011;55524;51.380;13.372;2023-02-15T04:26:47;47.30;;;14.80;;
68523;SDS011;55524;51.380;13.372;2023-02-15T04:29:14;54.95;;;15.98;;
68523;SDS011;55524;51.380;13.372;2023-02-15T04:31:41;51.22;;;15.10;;
68523;SDS011;55524;51.380;13.372;2023-02-15T04:34:08;48.17;;;14.60;;
68523;SDS011;55524;51.380;13.372;2023-02-15T04:36:35;39.83;;;13.15;;
68523;SDS011;55524;51.380;13.372;2023-02-15T04:39:02;45.72;;;15.30;;
68523;SDS011;55524;51.380;13.372;2023-02-15T04:41:29;49.03;;;14.90;;
68523;SDS011;55524;51.380;13.372;2023-02-15T04:43:56;49.58;;;14.68;;
68523;SDS011;55524;51.380;13.372;2023-02-15T04:46:22;50.00;;;14.88;;
68523;SDS011;55524;51.380;13.372;2023-02-15T04:48:48;46.67;;;14.40;;
68523;SDS011;55524;51.380;13.372;2023-02-15T04:51:15;53.85;;;14.50;;
68523;SDS011;55524;51.380;13.372;2023-02-15T04:53:41;48.40;;;13.95;;
68523;SDS011;55524;51.380;13.372;2023-02-15T04:56:07;48.67;;;14.75;;
68523;SDS011;55524;51.380;13.372;2023-02-15T04:58:34;51.10;;;14.55;;
68523;SDS011;55524;51.380;13.372;2023-02-15T05:01:02;59.17;;;15.57;;
68523;SDS011;55524;51.380;13.372;2023-02-15T05:03:28;47.33;;;14.82;;
68523;SDS011;55524;51.380;13.372;2023-02-15T05:05:54;61.30;;;15.80;;
68523;SDS011;55524;51.380;13.372;2023-02-15T05:08:21;91.20;;;26.23;;
68523;SDS011;55524;51.380;13.372;2023-02-15T05:10:47;60.10;;;19.00;;
68523;SDS011;55524;51.380;13.372;2023-02-15T05:13:14;55.65;;;18.20;;
68523;SDS011;55524;51.380;13.372;2023-02-15T05:15:40;50.00;;;17.08;;
68523;SDS011;55524;51.380;13.372;2023-02-15T05:18:11;53.10;;;16.88;;
68523;SDS011;55524;51.380;13.372;2023-02-15T05:20:37;54.95;;;16.40;;
68523;SDS011;55524;51.380;13.372;2023-02-15T05:23:03;53.78;;;16.55;;
68523;SDS011;55524;51.380;13.372;2023-02-15T05:25:30;48.63;;;14.63;;
68523;SDS011;55524;51.380;13.372;2023-02-15T05:28:14;51.45;;;14.90;;
68523;SDS011;55524;51.380;13.372;2023-02-15T05:30:50;55.22;;;16.13;;
68523;SDS011;55524;51.380;13.372;2023-02-15T05:33:32;49.75;;;14.95;;
68523;SDS011;55524;51.380;13.372;2023-02-15T05:35:59;53.15;;;15.93;;
68523;SDS011;55524;51.380;13.372;2023-02-15T05:38:25;54.95;;;14.18;;
68523;SDS011;55524;51.380;13.372;2023-02-15T05:40:52;46.88;;;14.10;;
68523;SDS011;55524;51.380;13.372;2023-02-15T05:43:18;49.72;;;14.55;;
68523;SDS011;55524;51.380;13.372;2023-02-15T05:45:47;48.75;;;14.60;;
68523;SDS011;55524;51.380;13.372;2023-02-15T05:48:18;39.88;;;12.43;;
68523;SDS011;55524;51.380;13.372;2023-02-15T05:50:55;46.15;;;14.40;;
68523;SDS011;55524;51.380;13.372;2023-02-15T05:53:25;38.70;;;13.27;;
68523;SDS011;55524;51.380;13.372;2023-02-15T05:55:53;38.38;;;12.18;;
68523;SDS011;55524;51.380;13.372;2023-02-15T05:58:24;43.67;;;12.95;;
68523;SDS011;55524;51.380;13.372;2023-02-15T06:00:55;40.08;;;12.15;;
68523;SDS011;55524;51.380;13.372;2023-02-15T06:03:21;43.50;;;12.50;;
68523;SDS011;55524;51.380;13.372;2023-02-15T06:05:48;41.42;;;14.15;;
68523;SDS011;55524;51.380;13.372;2023-02-15T06:08:15;47.70;;;13.23;;
68523;SDS011;55524;51.380;13.372;2023-02-15T06:10:41;46.85;;;14.13;;
68523;SDS011;55524;51.380;13.372;2023-02-15T06:13:07;49.28;;;12.75;;
68523;SDS011;55524;51.380;13.372;2023-02-15T06:15:33;40.45;;;12.57;;
68523;SDS011;55524;51.380;13.372;2023-02-15T06:18:00;41.75;;;11.90;;
68523;SDS011;55524;51.380;13.372;2023-02-15T06:20:27;47.38;;;12.77;;
68523;SDS011;55524;51.380;13.372;2023-02-15T06:22:53;37.75;;;12.18;;
68523;SDS011;55524;51.380;13.372;2023-02-15T06:25:19;39.03;;;12.50;;
68523;SDS011;55524;51.380;13.372;2023-02-15T06:27:45;37.80;;;12.30;;
68523;SDS011;55524;51.380;13.372;2023-02-15T06:30:13;45.25;;;12.75;;
68523;SDS011;55524;51.380;13.372;2023-02-15T06:32:39;45.75;;;13.05;;
68523;SDS011;55524;51.380;13.372;2023-02-15T06:35:06;46.03;;;12.77;;
68523;SDS011;55524;51.380;13.372;2023-02-15T06:37:32;43.70;;;12.45;;
68523;SDS011;55524;51.380;13.372;2023-02-15T06:39:59;36.20;;;10.82;;
68523;SDS011;55524;51.380;13.372;2023-02-15T06:42:25;37.47;;;11.63;;
68523;SDS011;55524;51.380;13.372;2023-02-15T06:44:51;38.10;;;12.27;;
68523;SDS011;55524;51.380;13.372;2023-02-15T06:47:17;40.67;;;12.02;;
68523;SDS011;55524;51.380;13.372;2023-02-15T06:49:44;37.63;;;12.00;;
68523;SDS011;55524;51.380;13.372;2023-02-15T06:52:10;40.67;;;11.45;;
68523;SDS011;55524;51.380;13.372;2023-02-15T06:54:36;39.97;;;11.73;;
68523;SDS011;55524;51.380;13.372;2023-02-15T06:57:02;44.53;;;12.45;;
68523;SDS011;55524;51.380;13.372;2023-02-15T06:59:29;41.03;;;12.23;;
68523;SDS011;55524;51.380;13.372;2023-02-15T07:01:55;40.65;;;12.13;;
68523;SDS011;55524;51.380;13.372;2023-02-15T07:04:21;41.90;;;11.85;;
68523;SDS011;55524;51.380;13.372;2023-02-15T07:06:47;41.88;;;11.80;;
68523;SDS011;55524;51.380;13.372;2023-02-15T07:09:14;39.95;;;12.00;;
68523;SDS011;55524;51.380;13.372;2023-02-15T07:11:40;48.70;;;14.23;;
68523;SDS011;55524;51.380;13.372;2023-02-15T07:14:25;41.20;;;12.10;;
68523;SDS011;55524;51.380;13.372;2023-02-15T07:16:51;43.90;;;13.38;;
68523;SDS011;55524;51.380;13.372;2023-02-15T07:19:17;45.13;;;11.95;;
68523;SDS011;55524;51.380;13.372;2023-02-15T07:21:43;45.58;;;13.55;;
68523;SDS011;55524;51.380;13.372;2023-02-15T07:24:10;44.75;;;14.02;;
68523;SDS011;55524;51.380;13.372;2023-02-15T07:26:36;43.10;;;12.80;;
68523;SDS011;55524;51.380;13.372;2023-02-15T07:29:03;43.33;;;13.05;;
68523;SDS011;55524;51.380;13.372;2023-02-15T07:31:29;40.38;;;11.60;;
68523;SDS011;55524;51.380;13.372;2023-02-15T07:33:55;46.10;;;11.85;;
68523;SDS011;55524;51.380;13.372;2023-02-15T07:36:22;56.08;;;13.35;;
68523;SDS011;55524;51.380;13.372;2023-02-15T07:38:48;62.47;;;15.35;;
68523;SDS011;55524;51.380;13.372;2023-02-15T07:41:14;52.83;;;14.02;;
68523;SDS011;55524;51.380;13.372;2023-02-15T07:43:42;48.70;;;13.18;;
68523;SDS011;55524;51.380;13.372;2023-02-15T07:46:14;43.53;;;12.52;;
68523;SDS011;55524;51.380;13.372;2023-02-15T07:48:41;37.28;;;12.48;;
68523;SDS011;55524;51.380;13.372;2023-02-15T07:51:09;37.63;;;11.43;;
68523;SDS011;55524;51.380;13.372;2023-02-15T07:53:36;34.17;;;11.60;;
68523;SDS011;55524;51.380;13.372;2023-02-15T07:56:04;34.90;;;11.70;;
68523;SDS011;55524;51.380;13.372;2023-02-15T07:58:35;29.08;;;11.48;;
68523;SDS011;55524;51.380;13.372;2023-02-15T08:01:22;26.40;;;10.35;;
68523;SDS011;55524;51.380;13.372;2023-02-15T08:03:50;33.25;;;11.45;;
68523;SDS011;55524;51.380;13.372;2023-02-15T08:06:16;32.13;;;10.88;;
68523;SDS011;55524;51.380;13.372;2023-02-15T08:08:43;33.20;;;11.57;;
68523;SDS011;55524;51.380;13.372;2023-02-15T08:11:31;46.15;;;12.52;;
68523;SDS011;55524;51.380;13.372;2023-02-15T08:19:25;28.08;;;10.90;;
68523;SDS011;55524;51.380;13.372;2023-02-15T08:21:57;26.98;;;10.43;;
68523;SDS011;55524;51.380;13.372;2023-02-15T08:24:29;24.13;;;10.32;;
68523;SDS011;55524;51.380;13.372;2023-02-15T08:26:59;22.73;;;9.93;;
68523;SDS011;55524;51.380;13.372;2023-02-15T08:29:29;26.92;;;9.65;;
68523;SDS011;55524;51.380;13.372;2023-02-15T08:32:00;23.70;;;10.18;;
68523;SDS011;55524;51.380;13.372;2023-02-15T08:34:33;24.67;;;10.15;;
68523;SDS011;55524;51.380;13.372;2023-02-15T08:37:01;22.83;;;9.85;;
68523;SDS011;55524;51.380;13.372;2023-02-15T08:39:27;27.00;;;10.65;;
68523;SDS011;55524;51.380;13.372;2023-02-15T08:41:54;24.52;;;10.27;;
68523;SDS011;55524;51.380;13.372;2023-02-15T08:44:20;21.80;;;9.65;;
68523;SDS011;55524;51.380;13.372;2023-02-15T08:46:48;22.15;;;9.57;;
68523;SDS011;55524;51.380;13.372;2023-02-15T08:49:19;21.60;;;9.32;;
68523;SDS011;55524;51.380;13.372;2023-02-15T08:51:46;20.98;;;8.82;;
68523;SDS011;55524;51.380;13.372;2023-02-15T08:54:14;21.42;;;8.90;;
68523;SDS011;55524;51.380;13.372;2023-02-15T08:56:46;19.80;;;8.73;;
68523;SDS011;55524;51.380;13.372;2023-02-15T08:59:14;18.45;;;8.05;;
68523;SDS011;55524;51.380;13.372;2023-02-15T09:01:46;20.90;;;8.48;;
68523;SDS011;55524;51.380;13.372;2023-02-15T09:04:13;22.27;;;8.40;;
68523;SDS011;55524;51.380;13.372;2023-02-15T09:06:40;19.02;;;8.52;;
68523;SDS011;55524;51.380;13.372;2023-02-15T09:09:09;21.67;;;8.93;;
68523;SDS011;55524;51.380;13.372;2023-02-15T09:11:37;21.90;;;9.10;;
68523;SDS011;55524;51.380;13.372;2023-02-15T09:14:06;18.75;;;8.05;;
68523;SDS011;55524;51.380;13.372;2023-02-15T09:16:35;17.52;;;7.93;;
68523;SDS011;55524;51.380;13.372;2023-02-15T09:19:02;25.00;;;7.65;;
68523;SDS011;55524;51.380;13.372;2023-02-15T09:21:30;19.92;;;7.80;;
68523;SDS011;55524;51.380;13.372;2023-02-15T09:24:01;15.80;;;7.22;;
68523;SDS011;55524;51.380;13.372;2023-02-15T09:26:30;15.30;;;7.03;;
68523;SDS011;55524;51.380;13.372;2023-02-15T09:29:00;17.17;;;7.03;;
68523;SDS011;55524;51.380;13.372;2023-02-15T09:31:47;18.38;;;7.82;;
68523;SDS011;55524;51.380;13.372;2023-02-15T09:34:16;18.98;;;7.65;;
68523;SDS011;55524;51.380;13.372;2023-02-15T09:36:44;20.63;;;7.40;;
68523;SDS011;55524;51.380;13.372;2023-02-15T09:39:18;17.33;;;6.97;;
68523;SDS011;55524;51.380;13.372;2023-02-15T09:44:47;24.95;;;8.50;;
68523;SDS011;55524;51.380;13.372;2023-02-15T09:55:53;18.48;;;7.72;;
68523;SDS011;55524;51.380;13.372;2023-02-15T09:58:40;14.68;;;6.75;;
68523;SDS011;55524;51.380;13.372;2023-02-15T10:06:42;15.07;;;7.15;;
68523;SDS011;55524;51.380;13.372;2023-02-15T10:12:11;16.63;;;7.68;;
68523;SDS011;55524;51.380;13.372;2023-02-15T10:14:53;17.70;;;6.82;;
68523;SDS011;55524;51.380;13.372;2023-02-15T10:25:47;14.35;;;6.95;;
68523;SDS011;55524;51.380;13.372;2023-02-15T10:28:26;13.52;;;6.55;;
68523;SDS011;55524;51.380;13.372;2023-02-15T10:39:25;14.38;;;6.80;;
68523;SDS011;55524;51.380;13.372;2023-02-15T10:44:45;12.35;;;6.30;;
68523;SDS011;55524;51.380;13.372;2023-02-15T10:52:59;22.80;;;10.25;;
68523;SDS011;55524;51.380;13.372;2023-02-15T11:00:42;18.77;;;7.47;;
68523;SDS011;55524;51.380;13.372;2023-02-15T11:06:11;16.73;;;8.02;;
68523;SDS011;55524;51.380;13.372;2023-02-15T11:08:49;12.98;;;6.30;;
68523;SDS011;55524;51.380;13.372;2023-02-15T11:11:40;11.90;;;6.50;;
68523;SDS011;55524;51.380;13.372;2023-02-15T11:14:12;13.18;;;6.80;;
68523;SDS011;55524;51.380;13.372;2023-02-15T11:16:44;12.52;;;6.82;;
68523;SDS011;55524;51.380;13.372;2023-02-15T11:19:19;18.27;;;7.10;;
68523;SDS011;55524;51.380;13.372;2023-02-15T11:21:54;13.65;;;6.88;;
68523;SDS011;55524;51.380;13.372;2023-02-15T11:24:28;14.57;;;6.75;;
68523;SDS011;55524;51.380;13.372;2023-02-15T11:27:00;20.95;;;7.18;;
68523;SDS011;55524;51.380;13.372;2023-02-15T11:29:52;13.07;;;6.72;;
68523;SDS011;55524;51.380;13.372;2023-02-15T11:35:17;15.73;;;6.78;;
68523;SDS011;55524;51.380;13.372;2023-02-15T11:40:52;10.90;;;5.43;;
68523;SDS011;55524;51.380;13.372;2023-02-15T11:43:47;11.05;;;5.90;;
68523;SDS011;55524;51.380;13.372;2023-02-15T11:46:19;236.35;;;25.25;;
68523;SDS011;55524;51.380;13.372;2023-02-15T11:48:46;13.00;;;6.82;;
68523;SDS011;55524;51.380;13.372;2023-02-15T11:51:14;14.88;;;6.32;;
68523;SDS011;55524;51.380;13.372;2023-02-15T11:53:44;12.80;;;6.10;;
68523;SDS011;55524;51.380;13.372;2023-02-15T11:56:18;13.90;;;5.85;;
68523;SDS011;55524;51.380;13.372;2023-02-15T11:59:00;10.38;;;5.25;;
68523;SDS011;55524;51.380;13.372;2023-02-15T12:01:37;11.65;;;5.50;;
68523;SDS011;55524;51.380;13.372;2023-02-15T12:06:59;9.77;;;5.03;;
68523;SDS011;55524;51.380;13.372;2023-02-15T12:12:33;13.80;;;5.20;;
68523;SDS011;55524;51.380;13.372;2023-02-15T12:15:02;9.15;;;4.85;;
68523;SDS011;55524;51.380;13.372;2023-02-15T12:17:32;10.30;;;5.30;;
68523;SDS011;55524;51.380;13.372;2023-02-15T12:22:50;11.30;;;5.18;;
68523;SDS011;55524;51.380;13.372;2023-02-15T12:25:41;11.80;;;5.18;;
68523;SDS011;55524;51.380;13.372;2023-02-15T12:30:59;11.50;;;5.30;;
68523;SDS011;55524;51.380;13.372;2023-02-15T12:33:35;11.10;;;5.03;;
68523;SDS011;55524;51.380;13.372;2023-02-15T12:36:17;8.05;;;5.38;;
68523;SDS011;55524;51.380;13.372;2023-02-15T12:41:36;9.93;;;5.32;;
68523;SDS011;55524;51.380;13.372;2023-02-15T12:44:16;10.23;;;5.57;;
68523;SDS011;55524;51.380;13.372;2023-02-15T12:49:33;9.55;;;5.32;;
68523;SDS011;55524;51.380;13.372;2023-02-15T12:52:02;12.77;;;5.50;;
68523;SDS011;55524;51.380;13.372;2023-02-15T12:54:41;11.45;;;5.43;;
68523;SDS011;55524;51.380;13.372;2023-02-15T12:57:25;8.10;;;5.22;;
68523;SDS011;55524;51.380;13.372;2023-02-15T13:02:31;7.38;;;4.93;;
68523;SDS011;55524;51.380;13.372;2023-02-15T13:05:10;8.88;;;5.00;;
68523;SDS011;55524;51.380;13.372;2023-02-15T13:08:26;8.07;;;4.97;;
68523;SDS011;55524;51.380;13.372;2023-02-15T13:11:00;7.57;;;5.30;;
68523;SDS011;55524;51.380;13.372;2023-02-15T13:13:35;9.32;;;5.20;;
68523;SDS011;55524;51.380;13.372;2023-02-15T13:19:09;8.65;;;5.55;;
68523;SDS011;55524;51.380;13.372;2023-02-15T13:21:40;11.23;;;5.47;;
68523;SDS011;55524;51.380;13.372;2023-02-15T13:24:19;9.88;;;5.28;;
68523;SDS011;55524;51.380;13.372;2023-02-15T13:26:58;10.73;;;5.97;;
68523;SDS011;55524;51.380;13.372;2023-02-15T13:29:45;9.43;;;5.00;;
68523;SDS011;55524;51.380;13.372;2023-02-15T13:34:58;9.88;;;5.70;;
68523;SDS011;55524;51.380;13.372;2023-02-15T13:37:33;9.50;;;5.25;;
68523;SDS011;55524;51.380;13.372;2023-02-15T13:40:18;11.70;;;5.78;;
68523;SDS011;55524;51.380;13.372;2023-02-15T13:42:55;10.50;;;5.55;;
68523;SDS011;55524;51.380;13.372;2023-02-15T13:45:45;12.27;;;5.25;;
68523;SDS011;55524;51.380;13.372;2023-02-15T13:51:21;9.88;;;5.25;;
68523;SDS011;55524;51.380;13.372;2023-02-15T14:05:33;8.18;;;5.13;;
68523;SDS011;55524;51.380;13.372;2023-02-15T14:08:11;9.30;;;4.78;;
68523;SDS011;55524;51.380;13.372;2023-02-15T14:30:49;21.88;;;8.00;;
68523;SDS011;55524;51.380;13.372;2023-02-15T14:35:46;16.05;;;8.38;;
68523;SDS011;55524;51.380;13.372;2023-02-15T14:38:17;15.57;;;7.85;;
68523;SDS011;55524;51.380;13.372;2023-02-15T14:41:15;15.05;;;7.82;;
68523;SDS011;55524;51.380;13.372;2023-02-15T14:46:38;16.17;;;7.15;;
68523;SDS011;55524;51.380;13.372;2023-02-15T14:49:31;12.68;;;7.10;;
68523;SDS011;55524;51.380;13.372;2023-02-15T14:52:06;13.65;;;7.30;;
68523;SDS011;55524;51.380;13.372;2023-02-15T15:02:15;14.88;;;7.70;;
68523;SDS011;55524;51.380;13.372;2023-02-15T15:07:43;15.52;;;7.53;;
68523;SDS011;55524;51.380;13.372;2023-02-15T15:12:51;14.20;;;7.38;;
68523;SDS011;55524;51.380;13.372;2023-02-15T15:18:04;16.98;;;7.72;;
68523;SDS011;55524;51.380;13.372;2023-02-15T15:28:56;18.65;;;8.70;;
68523;SDS011;55524;51.380;13.372;2023-02-15T15:34:08;19.52;;;9.70;;
68523;SDS011;55524;51.380;13.372;2023-02-15T15:42:49;17.10;;;8.23;;
68523;SDS011;55524;51.380;13.372;2023-02-15T15:50:58;22.48;;;9.45;;
68523;SDS011;55524;51.380;13.372;2023-02-15T15:53:29;17.50;;;9.00;;
68523;SDS011;55524;51.380;13.372;2023-02-15T15:56:01;18.42;;;9.00;;
68523;SDS011;55524;51.380;13.372;2023-02-15T15:58:31;18.77;;;9.52;;
68523;SDS011;55524;51.380;13.372;2023-02-15T16:01:09;20.63;;;8.73;;
68523;SDS011;55524;51.380;13.372;2023-02-15T16:03:48;19.20;;;9.65;;
68523;SDS011;55524;51.380;13.372;2023-02-15T16:06:35;16.08;;;8.35;;
68523;SDS011;55524;51.380;13.372;2023-02-15T16:09:12;17.33;;;8.18;;
68523;SDS011;55524;51.380;13.372;2023-02-15T16:11:48;18.15;;;8.48;;
68523;SDS011;55524;51.380;13.372;2023-02-15T16:14:37;19.92;;;9.63;;
68523;SDS011;55524;51.380;13.372;2023-02-15T16:17:08;27.45;;;11.32;;
68523;SDS011;55524;51.380;13.372;2023-02-15T16:19:43;27.63;;;11.52;;
68523;SDS011;55524;51.380;13.372;2023-02-15T16:22:20;28.10;;;12.00;;
68523;SDS011;55524;51.380;13.372;2023-02-15T16:27:39;21.20;;;9.80;;
68523;SDS011;55524;51.380;13.372;2023-02-15T16:33:04;20.50;;;9.23;;
68523;SDS011;55524;51.380;13.372;2023-02-15T16:35:36;25.17;;;11.43;;
68523;SDS011;55524;51.380;13.372;2023-02-15T16:38:04;31.42;;;11.88;;
68523;SDS011;55524;51.380;13.372;2023-02-15T16:40:47;42.50;;;13.68;;
68523;SDS011;55524;51.380;13.372;2023-02-15T16:43:20;40.10;;;11.88;;
68523;SDS011;55524;51.380;13.372;2023-02-15T16:45:52;71.07;;;13.48;;
68523;SDS011;55524;51.380;13.372;2023-02-15T16:48:32;25.35;;;10.70;;
68523;SDS011;55524;51.380;13.372;2023-02-15T16:51:03;23.70;;;11.23;;
68523;SDS011;55524;51.380;13.372;2023-02-15T16:53:30;24.95;;;11.43;;
68523;SDS011;55524;51.380;13.372;2023-02-15T16:55:57;23.42;;;11.13;;
68523;SDS011;55524;51.380;13.372;2023-02-15T16:58:27;22.88;;;10.38;;
68523;SDS011;55524;51.380;13.372;2023-02-15T17:03:25;19.95;;;9.00;;
68523;SDS011;55524;51.380;13.372;2023-02-15T17:05:53;20.15;;;9.82;;
68523;SDS011;55524;51.380;13.372;2023-02-15T17:08:27;24.63;;;9.60;;
68523;SDS011;55524;51.380;13.372;2023-02-15T17:11:05;24.83;;;9.52;;
68523;SDS011;55524;51.380;13.372;2023-02-15T17:13:37;21.70;;;9.80;;
68523;SDS011;55524;51.380;13.372;2023-02-15T17:18:38;23.35;;;9.82;;
68523;SDS011;55524;51.380;13.372;2023-02-15T17:21:10;31.00;;;11.05;;
68523;SDS011;55524;51.380;13.372;2023-02-15T17:23:42;23.88;;;10.15;;
68523;SDS011;55524;51.380;13.372;2023-02-15T17:28:49;27.92;;;10.75;;
68523;SDS011;55524;51.380;13.372;2023-02-15T17:31:18;24.95;;;10.90;;
68523;SDS011;55524;51.380;13.372;2023-02-15T17:33:45;27.63;;;11.68;;
68523;SDS011;55524;51.380;13.372;2023-02-15T17:36:16;30.92;;;12.23;;
68523;SDS011;55524;51.380;13.372;2023-02-15T17:41:25;29.08;;;12.55;;
68523;SDS011;55524;51.380;13.372;2023-02-15T17:43:59;29.70;;;11.18;;
68523;SDS011;55524;51.380;13.372;2023-02-15T17:46:28;30.52;;;12.27;;
68523;SDS011;55524;51.380;13.372;2023-02-15T17:48:59;30.00;;;11.57;;
68523;SDS011;55524;51.380;13.372;2023-02-15T17:51:26;34.17;;;12.80;;
68523;SDS011;55524;51.380;13.372;2023-02-15T17:53:52;28.77;;;11.65;;
68523;SDS011;55524;51.380;13.372;2023-02-15T17:56:37;32.40;;;11.50;;
68523;SDS011;55524;51.380;13.372;2023-02-15T17:59:04;33.70;;;11.70;;
68523;SDS011;55524;51.380;13.372;2023-02-15T18:01:37;31.80;;;12.00;;
68523;SDS011;55524;51.380;13.372;2023-02-15T18:04:28;32.47;;;11.45;;
68523;SDS011;55524;51.380;13.372;2023-02-15T18:07:15;40.17;;;13.88;;
68523;SDS011;55524;51.380;13.372;2023-02-15T18:10:05;35.35;;;13.75;;
68523;SDS011;55524;51.380;13.372;2023-02-15T18:13:00;37.88;;;12.88;;
68523;SDS011;55524;51.380;13.372;2023-02-15T18:15:26;37.58;;;13.93;;
68523;SDS011;55524;51.380;13.372;2023-02-15T18:17:53;43.03;;;15.68;;
68523;SDS011;55524;51.380;13.372;2023-02-15T18:20:24;41.08;;;15.20;;
68523;SDS011;55524;51.380;13.372;2023-02-15T18:22:55;38.15;;;15.15;;
68523;SDS011;55524;51.380;13.372;2023-02-15T18:25:21;41.65;;;14.45;;